createdAt,value
2022-10-11T00:02:07.457Z,66.44
2022-10-11T00:04:35.358Z,66.08
2022-10-11T00:07:05.129Z,66.36
2022-10-11T00:09:33.127Z,66.34
2022-10-11T00:12:00.956Z,65.57
2022-10-11T00:14:29.354Z,65.50
2022-10-11T00:16:57.355Z,65.34
2022-10-11T00:19:25.145Z,65.16
2022-10-11T00:21:52.927Z,65.09
2022-10-11T00:24:22.538Z,65.42
2022-10-11T00:26:50.329Z,65.23
2022-10-11T00:29:18.181Z,65.46
2022-10-11T00:31:45.989Z,65.77
2022-10-11T00:34:15.575Z,65.47
2022-10-11T00:36:43.392Z,65.60
2022-10-11T00:39:12.314Z,65.96
2022-10-11T00:41:43.799Z,66.11
2022-10-11T00:44:17.265Z,66.32
2022-10-11T00:46:54.975Z,66.14
2022-10-11T00:49:33.973Z,66.28
2022-10-11T00:52:04.582Z,66.24
2022-10-11T00:54:46.708Z,66.09
2022-10-11T00:57:30.917Z,66.02
2022-10-11T01:00:13.280Z,66.34
2022-10-11T01:02:53.226Z,66.29
2022-10-11T01:05:33.545Z,66.37
2022-10-11T01:08:15.004Z,66.61
2022-10-11T01:10:56.764Z,66.59
2022-10-11T01:13:49.072Z,66.73
2022-10-11T01:16:35.322Z,66.83
2022-10-11T01:19:30.733Z,66.81
2022-10-11T01:22:29.681Z,66.68
2022-10-11T01:25:27.300Z,66.99
2022-10-11T01:28:41.900Z,67.27
2022-10-11T01:31:27.001Z,67.26
2022-10-11T01:34:15.411Z,67.12
2022-10-11T01:37:04.868Z,67.32
2022-10-11T01:39:49.241Z,67.68
2022-10-11T01:42:30.781Z,67.43
2022-10-11T01:45:16.081Z,67.62
2022-10-11T01:48:05.529Z,67.73
2022-10-11T01:50:48.870Z,68.22
2022-10-11T01:54:09.992Z,69.06
2022-10-11T01:57:16.231Z,69.61
2022-10-11T01:59:54.048Z,70.48
2022-10-11T02:02:33.493Z,70.28
2022-10-11T02:05:08.621Z,70.00
2022-10-11T02:07:44.096Z,70.68
2022-10-11T02:10:16.596Z,70.45
2022-10-11T02:12:51.251Z,70.30
2022-10-11T02:15:21.455Z,70.38
2022-10-11T02:17:53.668Z,69.61
2022-10-11T02:20:25.810Z,69.38
2022-10-11T02:22:59.883Z,69.73
2022-10-11T02:25:31.286Z,69.58
2022-10-11T02:28:04.645Z,70.16
2022-10-11T02:30:33.780Z,70.12
2022-10-11T02:33:05.820Z,69.36
2022-10-11T02:35:40.048Z,69.51
2022-10-11T02:38:17.975Z,70.08
2022-10-11T02:41:01.621Z,69.46
2022-10-11T02:43:47.035Z,69.63
2022-10-11T02:46:30.381Z,68.92
2022-10-11T02:49:12.561Z,69.06
2022-10-11T02:51:52.501Z,68.89
2022-10-11T02:54:32.539Z,68.40
2022-10-11T02:57:12.120Z,68.14
2022-10-11T02:59:51.902Z,67.62
2022-10-11T03:02:31.849Z,68.29
2022-10-11T03:05:11.575Z,67.16
2022-10-11T03:07:51.350Z,67.26
2022-10-11T03:10:31.102Z,67.92
2022-10-11T03:13:14.830Z,68.22
2022-10-11T03:16:03.248Z,68.50
2022-10-11T03:18:48.399Z,67.83
2022-10-11T03:21:28.008Z,68.78
2022-10-11T03:24:08.517Z,68.23
2022-10-11T03:26:49.250Z,67.97
2022-10-11T03:29:28.973Z,67.87
2022-10-11T03:32:08.763Z,68.08
2022-10-11T03:34:48.589Z,67.90
2022-10-11T03:37:28.465Z,67.62
2022-10-11T03:40:09.659Z,67.83
2022-10-11T03:42:49.586Z,67.77
2022-10-11T03:45:29.408Z,67.46
2022-10-11T03:48:09.333Z,67.42
2022-10-11T03:50:49.373Z,67.16
2022-10-11T03:53:28.845Z,66.86
2022-10-11T03:56:09.685Z,67.12
2022-10-11T03:58:50.038Z,67.08
2022-10-11T04:01:30.636Z,67.15
2022-10-11T04:04:11.251Z,66.72
2022-10-11T04:06:51.025Z,66.89
2022-10-11T04:09:30.899Z,66.95
2022-10-11T04:12:10.707Z,67.37
2022-10-11T04:14:50.427Z,67.71
2022-10-11T04:17:30.261Z,67.49
2022-10-11T04:20:11.600Z,67.90
2022-10-11T04:22:51.480Z,67.76
2022-10-11T04:25:31.423Z,67.43
2022-10-11T04:28:11.114Z,67.83
2022-10-11T04:30:51.757Z,68.21
2022-10-11T04:33:32.333Z,68.49
2022-10-11T04:36:12.149Z,67.80
2022-10-11T04:38:52.012Z,68.32
2022-10-11T04:41:31.745Z,68.12
2022-10-11T04:44:11.555Z,68.09
2022-10-11T04:46:51.318Z,67.94
2022-10-11T04:49:31.293Z,67.98
2022-10-11T04:52:10.953Z,68.27
2022-10-11T04:54:50.703Z,68.27
2022-10-11T04:57:30.509Z,68.36
2022-10-11T05:00:11.962Z,68.66
2022-10-11T05:02:52.927Z,68.16
2022-10-11T05:05:33.099Z,68.38
2022-10-11T05:08:13.124Z,68.34
2022-10-11T05:11:00.736Z,68.09
2022-10-11T05:13:41.009Z,68.35
2022-10-11T05:16:20.365Z,68.14
2022-10-11T05:19:00.190Z,67.91
2022-10-11T05:21:39.969Z,68.54
2022-10-11T05:24:19.785Z,68.75
2022-10-11T05:27:03.151Z,68.37
2022-10-11T05:29:44.223Z,68.71
2022-10-11T05:32:27.681Z,69.48
2022-10-11T05:35:09.721Z,69.39
2022-10-11T05:37:50.013Z,69.35
2022-10-11T05:40:29.852Z,69.62
2022-10-11T05:43:09.925Z,69.48
2022-10-11T05:45:50.704Z,69.02
2022-10-11T05:48:30.863Z,69.14
2022-10-11T05:51:12.231Z,69.39
2022-10-11T05:53:51.981Z,68.78
2022-10-11T05:56:31.863Z,68.81
2022-10-11T05:59:11.680Z,68.75
2022-10-11T06:01:51.537Z,68.74
2022-10-11T06:04:31.229Z,68.69
2022-10-11T06:07:11.102Z,68.71
2022-10-11T06:09:52.048Z,68.55
2022-10-11T06:12:32.696Z,68.53
2022-10-11T06:15:31.750Z,68.08
2022-10-11T06:18:27.654Z,67.74
2022-10-11T06:21:22.398Z,67.70
2022-10-11T06:24:20.356Z,67.27
2022-10-11T06:27:17.448Z,67.03
2022-10-11T06:30:15.189Z,66.64
2022-10-11T06:33:12.325Z,66.41
2022-10-11T06:36:08.388Z,66.08
2022-10-11T06:39:10.757Z,65.72
2022-10-11T06:42:07.064Z,65.04
2022-10-11T06:45:13.500Z,64.70
2022-10-11T06:48:10.801Z,64.31
2022-10-11T06:51:10.366Z,64.16
2022-10-11T06:54:07.747Z,64.68
2022-10-11T06:57:02.342Z,65.63
2022-10-11T06:59:56.518Z,66.03
2022-10-11T07:02:50.722Z,66.12
2022-10-11T07:05:44.925Z,66.01
2022-10-11T07:08:43.213Z,65.80
2022-10-11T07:12:02.785Z,66.03
2022-10-11T07:15:12.541Z,65.82
2022-10-11T07:18:07.195Z,65.82
2022-10-11T07:21:04.279Z,65.36
2022-10-11T07:23:58.778Z,65.13
2022-10-11T07:26:55.677Z,65.07
2022-10-11T07:29:48.856Z,65.15
2022-10-11T07:32:46.484Z,64.19
2022-10-11T07:35:48.059Z,63.43
2022-10-11T07:38:46.658Z,63.35
2022-10-11T07:41:55.054Z,63.12
2022-10-11T07:44:52.265Z,63.21
2022-10-11T07:47:49.473Z,62.95
2022-10-11T07:50:47.185Z,62.99
2022-10-11T07:54:02.264Z,63.05
2022-10-11T07:57:01.752Z,62.78
2022-10-11T07:59:54.779Z,63.33
2022-10-11T08:02:57.788Z,62.94
2022-10-11T08:05:54.026Z,62.98
2022-10-11T08:09:05.533Z,63.02
2022-10-11T08:11:58.828Z,63.31
2022-10-11T08:15:05.464Z,63.21
2022-10-11T08:18:06.075Z,63.26
2022-10-11T08:21:08.833Z,63.03
2022-10-11T08:24:05.867Z,63.26
2022-10-11T08:27:09.625Z,63.64
2022-10-11T08:30:22.395Z,64.37
2022-10-11T08:33:15.817Z,64.67
2022-10-11T08:36:13.934Z,64.13
2022-10-11T08:39:11.109Z,64.00
2022-10-11T08:42:13.833Z,63.95
2022-10-11T08:45:25.173Z,63.53
2022-10-11T08:48:39.513Z,62.67
2022-10-11T08:51:40.113Z,62.63
2022-10-11T08:54:44.554Z,61.99
2022-10-11T08:57:40.130Z,62.00
2022-10-11T09:00:38.212Z,61.95
2022-10-11T09:03:29.149Z,62.13
2022-10-11T09:06:17.000Z,62.04
2022-10-11T09:09:22.145Z,62.92
2022-10-11T09:12:14.332Z,63.31
2022-10-11T09:15:04.128Z,64.58
2022-10-11T09:18:10.760Z,65.62
2022-10-11T09:21:16.437Z,66.24
2022-10-11T09:24:14.806Z,66.43
2022-10-11T09:27:00.554Z,66.12
2022-10-11T09:29:51.106Z,65.97
2022-10-11T09:32:35.889Z,65.96
2022-10-11T09:35:19.707Z,65.42
2022-10-11T09:38:05.245Z,64.14
2022-10-11T09:40:46.222Z,63.81
2022-10-11T09:43:14.324Z,63.51
2022-10-11T09:45:49.226Z,63.11
2022-10-11T09:48:21.292Z,62.85
2022-10-11T09:50:50.000Z,62.58
2022-10-11T09:53:19.984Z,62.74
2022-10-11T09:55:53.375Z,62.78
2022-10-11T09:58:30.608Z,62.61
2022-10-11T10:01:06.597Z,62.30
2022-10-11T10:03:37.565Z,62.60
2022-10-11T10:06:08.546Z,62.24
2022-10-11T10:08:38.232Z,62.53
2022-10-11T10:11:08.478Z,62.31
2022-10-11T10:13:44.238Z,62.07
2022-10-11T10:16:24.624Z,62.22
2022-10-11T10:18:55.273Z,62.01
2022-10-11T10:21:30.745Z,61.94
2022-10-11T10:24:04.463Z,61.46
2022-10-11T10:26:33.453Z,61.35
2022-10-11T10:29:05.881Z,61.20
2022-10-11T10:32:09.347Z,61.39
2022-10-11T10:34:30.760Z,60.99
2022-10-11T10:37:03.697Z,61.02
2022-10-11T10:39:40.052Z,60.90
2022-10-11T10:42:15.501Z,60.80
2022-10-11T10:44:44.359Z,60.63
2022-10-11T10:47:19.513Z,60.32
2022-10-11T10:49:56.078Z,60.37
2022-10-11T10:52:47.079Z,59.87
2022-10-11T10:55:24.438Z,59.79
2022-10-11T10:58:06.184Z,59.56
2022-10-11T11:00:42.384Z,59.33
2022-10-11T11:03:16.286Z,59.30
2022-10-11T11:05:49.408Z,59.29
2022-10-11T11:08:28.242Z,59.44
2022-10-11T11:11:04.834Z,59.33
2022-10-11T11:13:38.665Z,59.37
2022-10-11T11:16:14.493Z,59.75
2022-10-11T11:18:54.130Z,60.61
2022-10-11T11:21:32.600Z,60.91
2022-10-11T11:24:09.692Z,61.61
2022-10-11T11:26:44.388Z,61.73
2022-10-11T11:29:26.962Z,62.10
2022-10-11T11:32:22.431Z,62.42
2022-10-11T11:34:55.298Z,62.91
2022-10-11T11:37:28.243Z,63.21
2022-10-11T11:40:02.413Z,63.35
2022-10-11T11:42:40.373Z,63.35
2022-10-11T11:45:19.392Z,63.19
2022-10-11T11:47:53.051Z,64.10
2022-10-11T11:50:23.753Z,63.94
2022-10-11T11:52:53.950Z,63.66
2022-10-11T11:55:30.767Z,63.44
2022-10-11T11:58:09.997Z,63.60
2022-10-11T12:00:49.803Z,63.69
2022-10-11T12:03:22.576Z,63.65
2022-10-11T12:06:19.165Z,63.38
2022-10-11T12:08:49.822Z,63.13
2022-10-11T12:11:24.915Z,63.15
2022-10-11T12:13:55.804Z,63.11
2022-10-11T12:16:24.241Z,62.83
2022-10-11T12:19:00.587Z,62.83
2022-10-11T12:21:32.733Z,62.25
2022-10-11T12:24:01.610Z,62.06
2022-10-11T12:26:38.400Z,61.52
2022-10-11T12:29:28.378Z,61.08
2022-10-11T12:32:31.921Z,60.69
2022-10-11T12:35:44.324Z,60.35
2022-10-11T12:38:18.365Z,60.14
2022-10-11T12:40:48.221Z,59.64
2022-10-11T12:44:07.761Z,59.29
2022-10-11T12:47:17.891Z,58.76
2022-10-11T12:49:57.288Z,57.87
2022-10-11T12:52:35.046Z,57.37
2022-10-11T12:55:15.680Z,56.83
2022-10-11T12:58:14.936Z,56.70
2022-10-11T13:00:46.485Z,56.44
2022-10-11T13:03:32.530Z,56.29
2022-10-11T13:06:12.335Z,56.81
2022-10-11T13:08:44.905Z,57.00
2022-10-11T13:11:20.179Z,56.77
2022-10-11T13:13:53.032Z,57.24
2022-10-11T13:16:23.845Z,56.98
2022-10-11T13:18:56.927Z,56.22
2022-10-11T13:21:32.927Z,55.89
2022-10-11T13:24:02.173Z,55.38
2022-10-11T13:26:32.523Z,55.92
2022-10-11T13:29:01.192Z,56.42
2022-10-11T13:31:29.241Z,56.26
2022-10-11T13:33:59.975Z,55.96
2022-10-11T13:36:28.786Z,55.91
2022-10-11T13:39:00.155Z,56.19
2022-10-11T13:41:30.377Z,56.04
2022-10-11T13:44:00.534Z,55.82
2022-10-11T13:46:31.507Z,55.47
2022-10-11T13:49:01.276Z,55.61
2022-10-11T13:51:33.254Z,55.74
2022-10-11T13:54:04.551Z,55.38
2022-10-11T13:56:37.790Z,55.20
2022-10-11T13:59:05.937Z,55.22
2022-10-11T14:01:40.439Z,54.86
2022-10-11T14:04:10.636Z,54.84
2022-10-11T14:06:44.900Z,54.73
2022-10-11T14:09:21.281Z,55.06
2022-10-11T14:11:49.862Z,55.29
2022-10-11T14:14:43.143Z,55.26
2022-10-11T14:17:15.719Z,55.59
2022-10-11T14:19:43.754Z,55.59
2022-10-11T14:22:16.808Z,55.38
2022-10-11T14:24:48.749Z,55.13
2022-10-11T14:27:22.053Z,55.01
2022-10-11T14:30:23.452Z,54.67
2022-10-11T14:32:37.955Z,54.45
2022-10-11T14:35:06.841Z,54.62
2022-10-11T14:37:40.190Z,54.62
2022-10-11T14:40:14.576Z,54.48
2022-10-11T14:42:42.531Z,54.16
2022-10-11T14:45:11.138Z,54.25
2022-10-11T14:47:42.823Z,53.87
2022-10-11T14:50:27.699Z,54.16
2022-10-11T14:52:55.883Z,54.77
2022-10-11T14:55:25.493Z,55.20
2022-10-11T14:57:53.462Z,55.42
2022-10-11T15:00:24.125Z,55.26
2022-10-11T15:02:52.725Z,55.23
2022-10-11T15:05:20.627Z,55.46
2022-10-11T15:07:48.948Z,55.68
2022-10-11T15:10:22.932Z,55.78
2022-10-11T15:12:53.969Z,55.70
2022-10-11T15:15:24.565Z,55.86
2022-10-11T15:17:54.761Z,55.95
2022-10-11T15:20:26.778Z,56.55
2022-10-11T15:22:55.908Z,56.75
2022-10-11T15:25:24.600Z,56.96
2022-10-11T15:27:54.551Z,57.57
2022-10-11T15:30:24.016Z,58.33
2022-10-11T15:32:52.438Z,58.55
2022-10-11T15:35:20.834Z,59.16
2022-10-11T15:37:48.649Z,59.53
2022-10-11T15:40:19.456Z,60.22
2022-10-11T15:42:48.183Z,60.27
2022-10-11T15:45:18.521Z,60.65
2022-10-11T15:47:47.338Z,61.12
2022-10-11T15:50:23.868Z,61.48
2022-10-11T15:52:52.225Z,61.46
2022-10-11T15:55:20.302Z,61.99
2022-10-11T15:57:48.146Z,62.14
2022-10-11T16:00:22.099Z,62.22
2022-10-11T16:02:51.860Z,62.63
2022-10-11T16:05:20.258Z,62.67
2022-10-11T16:07:48.071Z,62.83
2022-10-11T16:10:16.025Z,62.95
2022-10-11T16:12:43.851Z,63.24
2022-10-11T16:15:12.644Z,63.31
2022-10-11T16:17:41.818Z,63.79
2022-10-11T16:20:10.182Z,63.82
2022-10-11T16:22:38.051Z,63.81
2022-10-11T16:25:06.966Z,64.21
2022-10-11T16:27:35.112Z,64.73
2022-10-11T16:30:03.155Z,65.26
2022-10-11T16:32:33.189Z,65.51
2022-10-11T16:35:02.781Z,65.55
2022-10-11T16:37:32.545Z,65.59
2022-10-11T16:40:00.505Z,66.06
2022-10-11T16:42:28.323Z,66.07
2022-10-11T16:44:56.241Z,66.11
2022-10-11T16:47:24.413Z,66.17
2022-10-11T16:49:52.378Z,66.30
2022-10-11T16:52:21.607Z,66.60
2022-10-11T16:54:50.550Z,66.72
2022-10-11T16:57:21.630Z,67.15
2022-10-11T16:59:49.483Z,67.36
2022-10-11T17:02:19.972Z,66.90
2022-10-11T17:04:50.542Z,67.29
2022-10-11T17:07:19.263Z,67.21
2022-10-11T17:09:49.512Z,67.74
2022-10-11T17:12:19.849Z,68.21
2022-10-11T17:14:48.198Z,68.00
2022-10-11T17:17:16.925Z,68.17
2022-10-11T17:19:45.613Z,68.39
2022-10-11T17:22:15.969Z,68.40
2022-10-11T17:24:43.923Z,68.79
2022-10-11T17:27:13.283Z,68.63
2022-10-11T17:29:41.212Z,68.86
2022-10-11T17:32:09.199Z,68.66
2022-10-11T17:34:37.005Z,69.29
2022-10-11T17:37:04.932Z,69.16
2022-10-11T17:39:32.738Z,68.95
2022-10-11T17:42:04.957Z,69.23
2022-10-11T17:44:34.815Z,68.94
2022-10-11T17:47:02.782Z,68.80
2022-10-11T17:49:30.781Z,68.79
2022-10-11T17:51:58.570Z,68.51
2022-10-11T17:54:26.698Z,68.81
2022-10-11T17:56:54.544Z,69.02
2022-10-11T17:59:23.057Z,69.08
2022-10-11T18:01:52.189Z,68.90
2022-10-11T18:04:21.790Z,69.09
2022-10-11T18:06:49.794Z,69.68
2022-10-11T18:09:19.229Z,69.38
2022-10-11T18:11:48.646Z,69.51
2022-10-11T18:14:16.687Z,69.05
2022-10-11T18:16:44.761Z,69.24
2022-10-11T18:19:14.835Z,68.99
2022-10-11T18:21:43.007Z,69.04
2022-10-11T18:24:14.933Z,69.54
2022-10-11T18:26:43.328Z,69.71
2022-10-11T18:29:12.423Z,69.72
2022-10-11T18:31:40.941Z,69.77
2022-10-11T18:34:10.752Z,69.89
2022-10-11T18:36:40.524Z,69.78
2022-10-11T18:39:11.850Z,69.58
2022-10-11T18:41:42.031Z,69.93
2022-10-11T18:44:10.894Z,69.31
2022-10-11T18:46:38.704Z,69.31
2022-10-11T18:49:06.825Z,70.17
2022-10-11T18:51:36.398Z,70.32
2022-10-11T18:54:07.464Z,70.24
2022-10-11T18:56:37.018Z,70.11
2022-10-11T18:59:06.326Z,69.87
2022-10-11T19:01:36.242Z,70.33
2022-10-11T19:04:05.726Z,70.34
2022-10-11T19:06:35.969Z,70.18
2022-10-11T19:09:07.734Z,69.99
2022-10-11T19:11:35.624Z,70.26
2022-10-11T19:14:07.312Z,69.97
2022-10-11T19:16:37.612Z,69.81
2022-10-11T19:19:06.062Z,69.78
2022-10-11T19:21:34.211Z,69.88
2022-10-11T19:24:02.614Z,69.85
2022-10-11T19:26:34.135Z,69.94
2022-10-11T19:29:04.865Z,70.39
2022-10-11T19:31:34.307Z,70.24
2022-10-11T19:34:02.391Z,70.06
2022-10-11T19:36:35.574Z,70.09
2022-10-11T19:39:05.267Z,69.96
2022-10-11T19:41:35.249Z,69.93
2022-10-11T19:44:03.088Z,70.06
2022-10-11T19:46:51.025Z,69.97
2022-10-11T19:49:21.460Z,70.14
2022-10-11T19:51:49.400Z,70.15
2022-10-11T19:54:17.718Z,70.15
2022-10-11T19:56:46.874Z,70.85
2022-10-11T19:59:15.474Z,71.07
2022-10-11T20:01:47.919Z,70.54
2022-10-11T20:04:46.975Z,70.92
2022-10-11T20:07:07.075Z,70.35
2022-10-11T20:09:34.893Z,70.30
2022-10-11T20:12:04.102Z,69.81
2022-10-11T20:14:31.863Z,69.94
2022-10-11T20:16:59.750Z,69.96
2022-10-11T20:19:31.171Z,70.13
2022-10-11T20:21:59.584Z,70.00
2022-10-11T20:24:28.978Z,70.12
2022-10-11T20:26:56.878Z,69.90
2022-10-11T20:29:26.316Z,69.74
2022-10-11T20:31:56.165Z,69.62
2022-10-11T20:34:24.039Z,69.49
2022-10-11T20:36:52.172Z,69.39
2022-10-11T20:39:20.031Z,69.73
2022-10-11T20:41:47.830Z,69.52
2022-10-11T20:44:16.127Z,69.34
2022-10-11T20:46:45.431Z,69.65
2022-10-11T20:49:13.590Z,69.85
2022-10-11T20:51:42.604Z,69.79
2022-10-11T20:54:10.850Z,69.76
2022-10-11T20:56:39.279Z,69.93
2022-10-11T20:59:08.056Z,69.92
2022-10-11T21:01:38.084Z,70.12
2022-10-11T21:04:09.259Z,70.26
2022-10-11T21:06:37.097Z,70.07
2022-10-11T21:09:05.111Z,70.31
2022-10-11T21:11:35.441Z,70.49
2022-10-11T21:14:06.125Z,71.11
2022-10-11T21:16:34.880Z,71.48
2022-10-11T21:19:04.084Z,71.60
2022-10-11T21:21:33.380Z,71.78
2022-10-11T21:24:03.304Z,72.01
2022-10-11T21:26:31.560Z,72.62
2022-10-11T21:29:00.124Z,72.36
2022-10-11T21:31:32.941Z,72.42
2022-10-11T21:34:02.529Z,72.42
2022-10-11T21:36:30.461Z,72.58
2022-10-11T21:38:59.695Z,72.96
2022-10-11T21:41:29.787Z,72.88
2022-10-11T21:43:58.028Z,73.15
2022-10-11T21:46:47.596Z,73.23
2022-10-11T21:49:15.488Z,72.57
2022-10-11T21:51:43.420Z,72.12
2022-10-11T21:54:12.735Z,71.64
2022-10-11T21:56:40.525Z,71.40
2022-10-11T21:59:11.283Z,71.16
2022-10-11T22:01:40.634Z,70.83
2022-10-11T22:04:08.989Z,70.76
2022-10-11T22:06:37.846Z,71.12
2022-10-11T22:09:06.721Z,70.75
2022-10-11T22:11:36.018Z,70.52
2022-10-11T22:14:03.911Z,70.88
2022-10-11T22:16:33.804Z,70.93
2022-10-11T22:19:01.625Z,70.66
2022-10-11T22:21:29.500Z,70.69
2022-10-11T22:23:57.374Z,70.59
2022-10-11T22:26:27.821Z,70.31
2022-10-11T22:28:57.634Z,70.26
2022-10-11T22:31:25.532Z,70.23
2022-10-11T22:33:54.914Z,70.39
2022-10-11T22:36:24.172Z,70.31
2022-10-11T22:38:52.955Z,70.17
2022-10-11T22:41:21.040Z,70.11
2022-10-11T22:43:48.982Z,70.31
2022-10-11T22:46:18.301Z,70.31
2022-10-11T22:48:46.137Z,70.39
2022-10-11T22:51:14.350Z,70.82
2022-10-11T22:53:42.197Z,70.60
2022-10-11T22:56:11.136Z,70.90
2022-10-11T22:58:38.991Z,70.65
2022-10-11T23:01:08.121Z,70.87
2022-10-11T23:03:37.388Z,71.01
2022-10-11T23:06:05.414Z,71.31
2022-10-11T23:08:33.479Z,71.51
2022-10-11T23:11:04.189Z,71.25
2022-10-11T23:13:31.991Z,71.20
2022-10-11T23:15:59.831Z,70.92
2022-10-11T23:18:27.672Z,70.64
2022-10-11T23:21:00.937Z,71.12
2022-10-11T23:23:28.803Z,70.72
2022-10-11T23:26:05.245Z,71.07
2022-10-11T23:28:33.375Z,71.28
2022-10-11T23:31:01.423Z,71.07
2022-10-11T23:33:29.466Z,70.64
2022-10-11T23:35:58.627Z,70.91
2022-10-11T23:38:26.428Z,71.96
2022-10-11T23:40:54.220Z,72.01
2022-10-11T23:43:22.149Z,71.72
2022-10-11T23:45:50.163Z,71.68
2022-10-11T23:48:18.006Z,71.99
2022-10-11T23:50:45.804Z,71.92
2022-10-11T23:53:15.016Z,72.62
2022-10-11T23:55:43.361Z,72.84
2022-10-11T23:58:11.486Z,73.58
